createdAt,value
2022-12-19T00:01:35.351Z,48.45
2022-12-19T00:04:08.072Z,48.29
2022-12-19T00:06:36.637Z,48.25
2022-12-19T00:09:04.050Z,48.33
2022-12-19T00:11:30.867Z,48.15
2022-12-19T00:13:58.217Z,48.44
2022-12-19T00:16:27.899Z,48.29
2022-12-19T00:18:58.351Z,48.36
2022-12-19T00:21:28.118Z,48.30
2022-12-19T00:23:55.299Z,48.18
2022-12-19T00:26:23.739Z,48.11
2022-12-19T00:28:53.190Z,48.25
2022-12-19T00:31:21.734Z,48.49
2022-12-19T00:33:49.354Z,48.37
2022-12-19T00:36:22.797Z,48.40
2022-12-19T00:38:51.548Z,48.44
2022-12-19T00:41:24.351Z,48.08
2022-12-19T00:43:58.572Z,48.18
2022-12-19T00:46:26.287Z,48.37
2022-12-19T00:48:52.855Z,48.19
2022-12-19T00:51:22.253Z,48.29
2022-12-19T00:53:50.732Z,48.13
2022-12-19T00:56:21.309Z,48.23
2022-12-19T00:58:48.938Z,48.22
2022-12-19T01:01:25.338Z,48.13
2022-12-19T01:04:26.685Z,48.12
2022-12-19T01:06:39.469Z,48.36
2022-12-19T01:09:08.973Z,48.11
2022-12-19T01:11:54.227Z,48.20
2022-12-19T01:14:23.062Z,48.14
2022-12-19T01:16:50.711Z,48.65
2022-12-19T01:19:17.366Z,48.20
2022-12-19T01:21:43.946Z,48.12
2022-12-19T01:24:11.430Z,48.55
2022-12-19T01:26:37.950Z,48.20
2022-12-19T01:29:05.299Z,48.35
2022-12-19T01:31:33.314Z,48.17
2022-12-19T01:34:01.511Z,48.09
2022-12-19T01:36:28.387Z,48.54
2022-12-19T01:38:58.381Z,48.24
2022-12-19T01:41:24.989Z,48.31
2022-12-19T01:43:57.494Z,48.60
2022-12-19T01:46:39.967Z,48.38
2022-12-19T01:49:15.159Z,47.92
2022-12-19T01:51:46.442Z,48.46
2022-12-19T01:54:25.806Z,48.12
2022-12-19T01:56:55.796Z,48.39
2022-12-19T01:59:32.161Z,48.53
2022-12-19T02:02:11.468Z,48.24
2022-12-19T02:04:39.624Z,48.17
2022-12-19T02:07:15.246Z,48.39
2022-12-19T02:09:56.561Z,48.25
2022-12-19T02:12:25.651Z,48.49
2022-12-19T02:14:54.345Z,48.37
2022-12-19T02:17:56.047Z,48.08
2022-12-19T02:21:03.966Z,48.21
2022-12-19T02:23:47.449Z,48.10
2022-12-19T02:26:29.239Z,48.30
2022-12-19T02:29:17.049Z,48.27
2022-12-19T02:31:57.301Z,48.38
2022-12-19T02:34:30.089Z,48.34
2022-12-19T02:37:05.509Z,48.20
2022-12-19T02:39:43.316Z,48.23
2022-12-19T02:42:15.127Z,48.39
2022-12-19T02:44:49.472Z,48.57
2022-12-19T02:47:17.400Z,48.12
2022-12-19T02:49:44.050Z,48.45
2022-12-19T02:52:33.512Z,48.58
2022-12-19T02:55:10.403Z,48.26
2022-12-19T02:57:46.033Z,48.44
2022-12-19T03:00:16.329Z,48.39
2022-12-19T03:03:22.482Z,48.49
2022-12-19T03:06:01.547Z,48.61
2022-12-19T03:08:31.932Z,48.66
2022-12-19T03:11:04.736Z,48.30
2022-12-19T03:13:36.360Z,48.58
2022-12-19T03:16:04.958Z,48.81
2022-12-19T03:18:33.239Z,48.62
2022-12-19T03:21:21.265Z,48.51
2022-12-19T03:23:50.820Z,48.42
2022-12-19T03:26:22.037Z,48.51
2022-12-19T03:28:57.686Z,48.46
2022-12-19T03:31:28.558Z,48.54
2022-12-19T03:33:59.389Z,48.55
2022-12-19T03:36:31.759Z,48.40
2022-12-19T03:39:02.456Z,48.57
2022-12-19T03:41:49.416Z,48.58
2022-12-19T03:44:17.205Z,48.76
2022-12-19T03:46:51.136Z,48.72
2022-12-19T03:49:18.220Z,48.67
2022-12-19T03:51:57.786Z,48.56
2022-12-19T03:54:31.124Z,48.48
2022-12-19T03:57:14.679Z,48.78
2022-12-19T04:00:02.753Z,48.78
2022-12-19T04:02:30.421Z,48.52
2022-12-19T04:05:04.195Z,48.81
2022-12-19T04:07:32.765Z,48.73
2022-12-19T04:10:02.145Z,48.70
2022-12-19T04:12:34.492Z,48.58
2022-12-19T04:15:01.591Z,48.78
2022-12-19T04:17:39.432Z,48.53
2022-12-19T04:20:11.209Z,48.83
2022-12-19T04:22:40.698Z,48.70
2022-12-19T04:25:16.099Z,48.91
2022-12-19T04:27:48.162Z,48.71
2022-12-19T04:30:20.151Z,48.90
2022-12-19T04:32:48.119Z,48.85
2022-12-19T04:35:14.729Z,48.64
2022-12-19T04:37:41.751Z,48.81
2022-12-19T04:40:10.124Z,48.90
2022-12-19T04:42:37.602Z,48.71
2022-12-19T04:45:05.816Z,48.89
2022-12-19T04:47:33.262Z,48.72
2022-12-19T04:49:59.829Z,49.03
2022-12-19T04:52:26.945Z,48.75
2022-12-19T04:54:53.495Z,48.76
2022-12-19T04:57:20.583Z,48.98
2022-12-19T04:59:47.593Z,48.81
2022-12-19T05:02:14.316Z,48.75
2022-12-19T05:04:41.377Z,48.81
2022-12-19T05:07:07.935Z,48.81
2022-12-19T05:09:34.456Z,48.69
2022-12-19T05:12:01.432Z,48.96
2022-12-19T05:14:28.019Z,49.12
2022-12-19T05:17:00.417Z,49.06
2022-12-19T05:19:28.551Z,48.89
2022-12-19T05:21:55.679Z,48.78
2022-12-19T05:24:22.270Z,49.12
2022-12-19T05:26:49.624Z,48.96
2022-12-19T05:29:17.264Z,48.95
2022-12-19T05:31:44.377Z,48.93
2022-12-19T05:34:11.634Z,48.87
2022-12-19T05:36:38.694Z,48.83
2022-12-19T05:39:05.397Z,48.94
2022-12-19T05:41:32.604Z,48.80
2022-12-19T05:43:59.171Z,48.50
2022-12-19T05:46:27.366Z,48.54
2022-12-19T05:48:54.699Z,48.55
2022-12-19T05:51:21.686Z,48.59
2022-12-19T05:53:48.812Z,48.78
2022-12-19T05:56:18.718Z,48.59
2022-12-19T05:58:46.144Z,48.65
2022-12-19T06:01:18.573Z,48.93
2022-12-19T06:03:46.280Z,48.60
2022-12-19T06:06:16.526Z,48.77
2022-12-19T06:08:43.248Z,48.84
2022-12-19T06:11:11.579Z,48.83
2022-12-19T06:13:38.894Z,48.62
2022-12-19T06:16:12.868Z,48.93
2022-12-19T06:18:44.459Z,48.59
2022-12-19T06:21:23.077Z,48.80
2022-12-19T06:23:50.324Z,48.55
2022-12-19T06:26:20.096Z,48.60
2022-12-19T06:28:49.212Z,48.66
2022-12-19T06:31:16.591Z,48.63
2022-12-19T06:33:43.245Z,48.46
2022-12-19T06:36:22.506Z,48.61
2022-12-19T06:38:49.533Z,48.46
2022-12-19T06:41:35.626Z,48.43
2022-12-19T06:44:05.368Z,48.10
2022-12-19T06:46:32.203Z,48.55
2022-12-19T06:48:59.669Z,48.37
2022-12-19T06:51:26.430Z,48.38
2022-12-19T06:53:53.685Z,48.56
2022-12-19T06:56:20.861Z,48.40
2022-12-19T06:58:48.496Z,48.53
2022-12-19T07:01:52.959Z,48.70
2022-12-19T07:04:29.089Z,48.79
2022-12-19T07:06:55.806Z,48.95
2022-12-19T07:09:23.290Z,48.73
2022-12-19T07:11:49.838Z,48.88
2022-12-19T07:14:16.357Z,48.85
2022-12-19T07:16:43.057Z,48.99
2022-12-19T07:19:10.332Z,48.98
2022-12-19T07:21:37.967Z,48.92
2022-12-19T07:24:06.030Z,48.78
2022-12-19T07:26:32.910Z,48.86
2022-12-19T07:29:00.516Z,48.92
2022-12-19T07:31:27.127Z,48.82
2022-12-19T07:33:53.702Z,48.93
2022-12-19T07:36:20.241Z,48.63
2022-12-19T07:38:46.819Z,48.81
2022-12-19T07:41:13.863Z,48.86
2022-12-19T07:43:40.880Z,48.88
2022-12-19T07:46:07.515Z,48.61
2022-12-19T07:48:34.043Z,48.75
2022-12-19T07:51:00.639Z,48.72
2022-12-19T07:53:28.147Z,48.80
2022-12-19T07:55:54.778Z,48.60
2022-12-19T07:58:21.959Z,48.54
2022-12-19T08:01:00.755Z,48.51
2022-12-19T08:03:28.411Z,48.65
2022-12-19T08:06:00.154Z,48.94
2022-12-19T08:08:27.983Z,48.91
2022-12-19T08:10:54.827Z,48.47
2022-12-19T08:13:21.462Z,49.01
2022-12-19T08:15:48.115Z,49.33
2022-12-19T08:18:15.119Z,49.32
2022-12-19T08:20:44.552Z,49.40
2022-12-19T08:23:11.058Z,49.52
2022-12-19T08:25:37.571Z,49.69
2022-12-19T08:28:04.588Z,49.75
2022-12-19T08:30:31.096Z,49.73
2022-12-19T08:32:57.667Z,49.81
2022-12-19T08:35:24.191Z,50.25
2022-12-19T08:37:51.193Z,50.11
2022-12-19T08:40:17.757Z,50.14
2022-12-19T08:42:44.257Z,50.07
2022-12-19T08:45:11.326Z,50.19
2022-12-19T08:47:37.884Z,50.32
2022-12-19T08:50:04.884Z,50.35
2022-12-19T08:52:31.399Z,50.34
2022-12-19T08:54:58.033Z,50.41
2022-12-19T08:57:24.582Z,50.40
2022-12-19T08:59:51.645Z,50.25
2022-12-19T09:02:19.239Z,50.52
2022-12-19T09:06:00.590Z,50.70
2022-12-19T09:07:34.561Z,50.62
2022-12-19T09:10:06.343Z,50.72
2022-12-19T09:12:33.348Z,50.80
2022-12-19T09:14:59.864Z,50.87
2022-12-19T09:17:26.391Z,51.04
2022-12-19T09:19:52.953Z,51.16
2022-12-19T09:22:19.464Z,51.43
2022-12-19T09:24:45.980Z,51.45
2022-12-19T09:27:12.728Z,51.80
2022-12-19T09:29:40.953Z,51.46
2022-12-19T09:32:07.514Z,51.39
2022-12-19T09:34:37.425Z,51.49
2022-12-19T09:37:15.767Z,51.50
2022-12-19T09:39:45.233Z,51.38
2022-12-19T09:42:29.894Z,51.61
2022-12-19T09:45:15.008Z,51.63
2022-12-19T09:47:49.260Z,51.14
2022-12-19T09:50:31.851Z,51.38
2022-12-19T09:53:03.840Z,51.25
2022-12-19T09:55:37.681Z,51.52
2022-12-19T09:58:18.605Z,51.47
2022-12-19T10:00:59.694Z,51.18
2022-12-19T10:03:40.450Z,51.34
2022-12-19T10:07:09.002Z,51.28
2022-12-19T10:10:01.902Z,51.06
2022-12-19T10:12:42.674Z,51.44
2022-12-19T10:15:12.414Z,51.30
2022-12-19T10:18:06.195Z,51.40
2022-12-19T10:20:35.473Z,51.20
2022-12-19T10:23:32.744Z,51.36
2022-12-19T10:26:03.937Z,51.22
2022-12-19T10:28:46.190Z,51.50
2022-12-19T10:31:24.741Z,51.41
2022-12-19T10:34:27.351Z,51.25
2022-12-19T10:37:27.585Z,51.69
2022-12-19T10:40:05.003Z,51.52
2022-12-19T10:43:28.647Z,51.61
2022-12-19T10:46:03.609Z,51.47
2022-12-19T10:48:31.525Z,51.33
2022-12-19T10:50:58.622Z,51.41
2022-12-19T10:53:32.166Z,51.56
2022-12-19T10:56:11.785Z,51.92
2022-12-19T10:58:43.321Z,51.70
2022-12-19T11:01:09.850Z,51.40
2022-12-19T11:03:37.392Z,51.54
2022-12-19T11:06:05.094Z,51.38
2022-12-19T11:08:35.077Z,51.70
2022-12-19T11:12:53.099Z,51.70
2022-12-19T11:21:12.274Z,51.54
2022-12-19T11:22:25.740Z,51.77
2022-12-19T11:29:40.286Z,51.97
2022-12-19T11:29:41.908Z,51.94
2022-12-19T11:30:45.317Z,51.89
2022-12-19T11:30:48.365Z,51.95
2022-12-19T11:32:34.025Z,51.92
2022-12-19T11:34:18.895Z,51.90
2022-12-19T11:36:55.815Z,52.05
2022-12-19T11:39:29.717Z,52.06
2022-12-19T11:42:16.018Z,51.98
2022-12-19T11:44:53.241Z,52.18
2022-12-19T11:47:37.110Z,52.12
2022-12-19T11:50:13.655Z,52.08
2022-12-19T11:53:05.920Z,52.34
2022-12-19T11:55:45.174Z,52.03
2022-12-19T11:58:13.068Z,51.95
2022-12-19T12:00:54.210Z,52.02
2022-12-19T12:03:58.306Z,52.09
2022-12-19T12:06:33.980Z,51.89
2022-12-19T12:13:21.559Z,52.00
2022-12-19T12:21:57.695Z,52.09
2022-12-19T12:31:00.611Z,52.07
2022-12-19T12:31:27.902Z,51.98
2022-12-19T12:31:31.852Z,52.25
2022-12-19T12:31:45.830Z,52.12
2022-12-19T12:31:57.039Z,52.16
2022-12-19T12:35:38.053Z,52.19
2022-12-19T12:38:22.959Z,52.33
2022-12-19T12:41:13.428Z,52.49
2022-12-19T12:44:06.472Z,52.34
2022-12-19T12:46:40.336Z,52.22
2022-12-19T12:49:15.598Z,52.26
2022-12-19T12:51:42.939Z,52.06
2022-12-19T12:54:15.949Z,52.18
2022-12-19T12:56:44.529Z,52.08
2022-12-19T12:59:26.786Z,52.29
2022-12-19T13:02:00.380Z,52.15
2022-12-19T13:04:29.666Z,51.90
2022-12-19T13:07:12.851Z,52.21
2022-12-19T13:09:40.919Z,51.90
2022-12-19T13:12:38.501Z,52.17
2022-12-19T13:15:27.020Z,52.24
2022-12-19T13:17:53.556Z,52.07
2022-12-19T13:20:29.194Z,52.11
2022-12-19T13:22:58.711Z,52.04
2022-12-19T13:25:34.051Z,51.95
2022-12-19T13:28:03.623Z,52.02
2022-12-19T13:30:50.531Z,51.92
2022-12-19T13:33:19.378Z,52.07
2022-12-19T13:37:31.350Z,51.85
2022-12-19T13:39:50.088Z,52.17
2022-12-19T13:42:00.068Z,52.11
2022-12-19T13:44:26.754Z,51.88
2022-12-19T13:46:56.018Z,51.95
2022-12-19T13:49:34.261Z,52.07
2022-12-19T13:52:03.570Z,51.96
2022-12-19T13:54:51.093Z,52.42
2022-12-19T13:57:30.017Z,52.37
2022-12-19T14:00:10.445Z,52.53
2022-12-19T14:02:46.311Z,52.54
2022-12-19T14:06:17.897Z,52.48
2022-12-19T14:08:26.049Z,52.46
2022-12-19T14:11:36.661Z,52.35
2022-12-19T14:14:27.591Z,52.78
2022-12-19T14:17:06.582Z,53.04
2022-12-19T14:19:42.581Z,52.77
2022-12-19T14:22:25.976Z,52.75
2022-12-19T14:25:50.182Z,52.85
2022-12-19T14:28:20.040Z,52.90
2022-12-19T14:31:00.992Z,52.81
2022-12-19T14:33:59.093Z,53.00
2022-12-19T14:36:32.763Z,52.90
2022-12-19T14:39:19.735Z,52.67
2022-12-19T14:42:08.281Z,52.81
2022-12-19T14:53:08.410Z,53.06
2022-12-19T14:54:04.973Z,52.97
2022-12-19T14:54:14.694Z,52.63
2022-12-19T14:54:27.813Z,53.20
2022-12-19T14:59:01.680Z,53.01
2022-12-19T15:01:32.338Z,53.11
2022-12-19T15:04:51.952Z,53.00
2022-12-19T15:07:11.793Z,53.13
2022-12-19T15:11:03.467Z,53.36
2022-12-19T15:14:56.287Z,53.21
2022-12-19T15:16:29.955Z,53.28
2022-12-19T15:19:00.241Z,53.00
2022-12-19T15:21:27.948Z,53.01
2022-12-19T15:23:54.891Z,52.75
2022-12-19T15:26:34.015Z,53.15
2022-12-19T15:29:01.907Z,53.06
2022-12-19T15:31:34.763Z,53.35
2022-12-19T15:34:48.267Z,53.39
2022-12-19T15:37:15.966Z,53.12
2022-12-19T15:39:43.940Z,53.30
2022-12-19T15:42:28.849Z,53.40
2022-12-19T15:44:57.909Z,53.08
2022-12-19T15:47:32.913Z,53.25
2022-12-19T15:50:02.741Z,53.25
2022-12-19T15:52:29.973Z,53.00
2022-12-19T15:54:59.287Z,53.09
2022-12-19T15:57:36.799Z,53.17
2022-12-19T16:00:07.887Z,53.11
2022-12-19T16:03:13.444Z,52.98
2022-12-19T16:05:23.462Z,53.03
2022-12-19T16:07:50.706Z,52.96
2022-12-19T16:10:17.544Z,53.04
2022-12-19T16:12:48.189Z,53.14
2022-12-19T16:15:26.969Z,53.29
2022-12-19T16:17:55.391Z,53.09
2022-12-19T16:20:25.267Z,53.17
2022-12-19T16:22:51.892Z,53.25
2022-12-19T16:25:19.141Z,53.09
2022-12-19T16:27:53.132Z,53.24
2022-12-19T16:30:23.380Z,53.29
2022-12-19T16:32:50.747Z,53.20
2022-12-19T16:35:40.157Z,53.21
2022-12-19T16:38:07.096Z,53.25
2022-12-19T16:40:33.687Z,53.19
2022-12-19T16:43:25.484Z,53.32
2022-12-19T16:45:53.106Z,53.10
2022-12-19T16:48:26.133Z,53.25
2022-12-19T16:50:53.453Z,53.21
2022-12-19T16:53:20.053Z,53.07
2022-12-19T16:55:48.745Z,53.14
2022-12-19T16:58:21.773Z,53.18
2022-12-19T17:00:51.132Z,53.23
2022-12-19T17:03:36.811Z,53.49
2022-12-19T17:06:04.504Z,53.00
2022-12-19T17:08:32.419Z,53.11
2022-12-19T17:10:59.261Z,53.15
2022-12-19T17:13:26.399Z,53.08
2022-12-19T17:15:57.012Z,53.32
2022-12-19T17:18:27.194Z,53.40
2022-12-19T17:20:53.980Z,53.10
2022-12-19T17:23:22.495Z,53.11
2022-12-19T17:25:50.306Z,53.18
2022-12-19T17:28:17.657Z,52.92
2022-12-19T17:30:52.550Z,53.44
2022-12-19T17:33:22.148Z,53.23
2022-12-19T17:35:48.914Z,53.10
2022-12-19T17:38:17.200Z,53.17
2022-12-19T17:40:44.856Z,53.42
2022-12-19T17:43:14.732Z,53.35
2022-12-19T17:45:41.852Z,53.26
2022-12-19T17:48:26.438Z,53.58
2022-12-19T17:50:54.210Z,53.33
2022-12-19T17:53:21.128Z,53.49
2022-12-19T17:55:47.856Z,53.48
2022-12-19T17:58:14.536Z,53.35
2022-12-19T18:00:42.178Z,53.16
2022-12-19T18:03:25.155Z,53.59
2022-12-19T18:05:54.665Z,53.35
2022-12-19T18:08:25.460Z,53.53
2022-12-19T18:10:52.822Z,53.58
2022-12-19T18:13:20.497Z,53.62
2022-12-19T18:15:47.371Z,53.80
2022-12-19T18:18:15.831Z,54.17
2022-12-19T18:20:44.220Z,53.96
2022-12-19T18:23:16.833Z,53.79
2022-12-19T18:25:44.407Z,53.97
2022-12-19T18:28:11.219Z,53.96
2022-12-19T18:30:38.345Z,54.08
2022-12-19T18:33:06.806Z,54.13
2022-12-19T18:35:40.445Z,54.40
2022-12-19T18:38:12.552Z,54.49
2022-12-19T18:40:39.620Z,54.18
2022-12-19T18:43:06.427Z,54.37
2022-12-19T18:45:42.745Z,54.54
2022-12-19T18:48:18.311Z,54.60
2022-12-19T18:50:45.412Z,54.54
2022-12-19T18:53:15.729Z,54.58
2022-12-19T18:55:44.150Z,54.34
2022-12-19T18:58:10.718Z,54.19
2022-12-19T19:00:39.008Z,54.12
2022-12-19T19:03:11.976Z,54.31
2022-12-19T19:05:40.180Z,54.09
2022-12-19T19:08:15.285Z,54.26
2022-12-19T19:10:41.855Z,53.96
2022-12-19T19:13:10.392Z,53.94
2022-12-19T19:15:45.482Z,53.77
2022-12-19T19:18:12.705Z,53.95
2022-12-19T19:20:42.051Z,53.76
2022-12-19T19:23:11.815Z,53.93
2022-12-19T19:25:38.885Z,53.79
2022-12-19T19:28:06.563Z,53.77
2022-12-19T19:30:35.784Z,53.80
2022-12-19T19:33:25.806Z,54.18
2022-12-19T19:35:58.036Z,53.77
2022-12-19T19:38:25.486Z,53.59
2022-12-19T19:40:52.056Z,53.66
2022-12-19T19:43:18.599Z,53.73
2022-12-19T19:45:45.134Z,53.64
2022-12-19T19:48:11.744Z,53.67
2022-12-19T19:50:38.873Z,53.56
2022-12-19T19:53:05.492Z,53.58
2022-12-19T19:55:32.044Z,53.66
2022-12-19T19:57:59.157Z,53.53
2022-12-19T20:00:25.853Z,53.67
2022-12-19T20:02:52.638Z,53.85
2022-12-19T20:05:19.351Z,53.66
2022-12-19T20:07:45.905Z,53.53
2022-12-19T20:10:13.509Z,53.59
2022-12-19T20:12:40.185Z,53.47
2022-12-19T20:15:07.649Z,53.47
2022-12-19T20:17:34.302Z,53.40
2022-12-19T20:20:00.863Z,53.45
2022-12-19T20:22:29.200Z,53.45
2022-12-19T20:24:56.463Z,53.49
2022-12-19T20:27:23.540Z,53.38
2022-12-19T20:29:50.636Z,53.39
2022-12-19T20:32:17.429Z,53.47
2022-12-19T20:34:44.498Z,53.26
2022-12-19T20:37:11.705Z,53.42
2022-12-19T20:39:38.444Z,53.35
2022-12-19T20:42:06.496Z,53.52
2022-12-19T20:44:33.201Z,53.42
2022-12-19T20:47:00.127Z,53.33
2022-12-19T20:49:27.136Z,53.33
2022-12-19T20:51:54.502Z,53.41
2022-12-19T20:54:21.153Z,53.33
2022-12-19T20:56:48.167Z,53.41
2022-12-19T20:59:14.764Z,53.39
2022-12-19T21:01:41.465Z,53.38
2022-12-19T21:04:08.622Z,53.31
2022-12-19T21:06:37.900Z,53.39
2022-12-19T21:09:06.164Z,53.28
2022-12-19T21:11:33.626Z,53.34
2022-12-19T21:14:01.107Z,53.44
2022-12-19T21:16:27.764Z,53.31
2022-12-19T21:18:54.890Z,53.45
2022-12-19T21:21:25.008Z,53.28
2022-12-19T21:23:52.383Z,53.37
2022-12-19T21:26:19.195Z,53.29
2022-12-19T21:28:45.785Z,53.29
2022-12-19T21:31:18.343Z,53.49
2022-12-19T21:33:46.127Z,53.49
2022-12-19T21:36:19.047Z,53.42
2022-12-19T21:38:51.780Z,53.52
2022-12-19T21:41:19.386Z,53.29
2022-12-19T21:43:48.730Z,53.29
2022-12-19T21:46:16.780Z,53.29
2022-12-19T21:48:46.504Z,53.42
2022-12-19T21:51:14.923Z,53.37
2022-12-19T21:53:42.156Z,53.27
2022-12-19T21:56:34.427Z,53.46
2022-12-19T21:59:03.804Z,53.27
2022-12-19T22:01:31.480Z,53.28
2022-12-19T22:04:00.238Z,53.18
2022-12-19T22:06:30.305Z,53.18
2022-12-19T22:08:57.120Z,53.31
2022-12-19T22:11:24.467Z,53.27
2022-12-19T22:13:52.161Z,53.33
2022-12-19T22:16:19.095Z,53.17
2022-12-19T22:18:46.476Z,53.29
2022-12-19T22:21:15.091Z,53.22
2022-12-19T22:23:42.648Z,53.30
2022-12-19T22:26:15.479Z,53.38
2022-12-19T22:28:45.039Z,53.24
2022-12-19T22:31:26.937Z,53.44
2022-12-19T22:33:56.551Z,53.37
2022-12-19T22:36:28.350Z,53.38
2022-12-19T22:38:56.621Z,53.25
2022-12-19T22:41:23.560Z,53.32
2022-12-19T22:43:50.148Z,53.39
2022-12-19T22:46:20.283Z,53.35
2022-12-19T22:48:48.689Z,53.24
2022-12-19T22:51:16.403Z,53.23
2022-12-19T22:53:44.059Z,53.19
2022-12-19T22:56:19.729Z,53.37
2022-12-19T22:58:49.426Z,53.25
2022-12-19T23:01:28.682Z,53.43
2022-12-19T23:03:57.915Z,53.40
2022-12-19T23:06:27.788Z,53.31
2022-12-19T23:08:54.934Z,53.39
2022-12-19T23:11:28.151Z,53.48
2022-12-19T23:13:55.351Z,53.34
2022-12-19T23:16:22.474Z,53.38
2022-12-19T23:18:49.039Z,53.23
2022-12-19T23:21:19.295Z,53.32
2022-12-19T23:23:48.181Z,53.31
2022-12-19T23:26:20.635Z,53.34
2022-12-19T23:28:52.875Z,53.70
2022-12-19T23:31:20.344Z,53.23
2022-12-19T23:33:46.983Z,53.24
2022-12-19T23:36:14.318Z,53.15
2022-12-19T23:38:43.264Z,53.45
2022-12-19T23:41:11.739Z,53.35
2022-12-19T23:43:39.028Z,53.29
2022-12-19T23:46:11.726Z,53.53
2022-12-19T23:48:38.339Z,53.45
2022-12-19T23:51:07.305Z,53.33
2022-12-19T23:53:34.889Z,53.38
2022-12-19T23:56:05.733Z,53.44
2022-12-19T23:58:32.601Z,53.36
